Time;durP1;ratioP1;P1;durP2;ratioP2;P2;SDS_P1;SDS_P2;PMS_P1;PMS_P2;Temp;Humidity;BMP_temperature;BMP_pressure;BME280_temperature;BME280_humidity;BME280_pressure;Samples;Min_cycle;Max_cycle;Signal;HPM_P1;HPM_P2
2022/01/04 00:00:12;;;;;;;18.17;7.95;;;5.70;99.90;;;;;;5029803;28;20083;-79
2022/01/04 00:02:38;;;;;;;16.42;8.00;;;5.70;99.90;;;;;;5030571;28;20363;-79
2022/01/04 00:05:04;;;;;;;12.77;7.05;;;5.70;99.90;;;;;;5033689;28;20120;-79
2022/01/04 00:07:31;;;;;;;14.90;6.93;;;5.70;99.90;;;;;;5033458;28;20036;-79
2022/01/04 00:09:56;;;;;;;13.63;7.00;;;5.70;99.90;;;;;;5033487;28;20021;-79
2022/01/04 00:15:07;;;;;;;13.35;7.78;;;5.70;99.90;;;;;;5035316;28;20032;-80
2022/01/04 00:17:33;;;;;;;16.15;7.88;;;5.70;99.90;;;;;;5034595;28;20025;-80
2022/01/04 00:19:59;;;;;;;13.38;7.55;;;5.70;99.90;;;;;;5034685;28;20087;-80
2022/01/04 00:22:24;;;;;;;15.45;8.18;;;5.70;99.90;;;;;;5033425;28;20021;-80
2022/01/04 00:24:50;;;;;;;12.75;6.60;;;5.70;99.90;;;;;;5034829;28;20025;-80
2022/01/04 00:27:16;;;;;;;16.25;7.45;;;5.70;99.90;;;;;;5033213;28;20456;-80
2022/01/04 00:29:42;;;;;;;15.07;7.32;;;5.80;99.90;;;;;;5034374;28;20032;-80
2022/01/04 00:32:08;;;;;;;18.65;8.70;;;5.70;99.90;;;;;;5033217;28;20391;-80
2022/01/04 00:34:33;;;;;;;14.07;7.22;;;5.70;99.90;;;;;;5034242;28;20022;-80
2022/01/04 00:36:59;;;;;;;14.23;7.80;;;5.70;99.90;;;;;;5034506;28;20113;-80
2022/01/04 00:39:25;;;;;;;14.95;7.05;;;5.70;99.90;;;;;;5032922;28;20017;-80
2022/01/04 00:41:50;;;;;;;12.07;7.50;;;5.70;99.90;;;;;;5032961;28;20018;-79
2022/01/04 00:44:16;;;;;;;9.75;6.68;;;5.60;99.90;;;;;;5032893;28;20017;-80
2022/01/04 00:46:42;;;;;;;15.15;7.38;;;5.60;99.90;;;;;;5032719;28;20029;-80
2022/01/04 00:49:11;;;;;;;13.50;6.75;;;5.60;99.90;;;;;;5034135;28;20080;-80
2022/01/04 00:51:38;;;;;;;14.95;6.55;;;5.60;99.90;;;;;;5032739;28;20018;-80
2022/01/04 00:54:05;;;;;;;13.35;6.80;;;5.50;99.90;;;;;;5034086;28;20116;-80
2022/01/04 00:56:31;;;;;;;8.85;6.07;;;5.50;99.90;;;;;;5032742;28;20079;-80
2022/01/04 00:58:57;;;;;;;10.85;6.68;;;5.50;99.90;;;;;;5033842;28;20475;-81
2022/01/04 01:01:23;;;;;;;13.48;7.15;;;5.40;99.90;;;;;;5033915;28;20021;-80
2022/01/04 01:03:49;;;;;;;12.07;7.50;;;5.40;99.90;;;;;;5032595;28;20029;-81
2022/01/04 01:06:14;;;;;;;12.80;7.25;;;5.40;99.90;;;;;;5032292;28;20608;-80
2022/01/04 01:08:40;;;;;;;12.88;7.45;;;5.40;99.90;;;;;;5032493;28;20395;-80
2022/01/04 01:11:07;;;;;;;14.95;7.72;;;5.40;99.90;;;;;;5032396;28;20041;-81
2022/01/04 01:13:33;;;;;;;13.98;8.35;;;5.40;99.90;;;;;;5033631;28;20021;-81
2022/01/04 01:15:59;;;;;;;16.02;7.32;;;5.40;99.90;;;;;;5031775;28;20044;-81
2022/01/04 01:18:24;;;;;;;12.10;6.95;;;5.40;99.90;;;;;;5032336;28;20025;-81
2022/01/04 01:20:50;;;;;;;14.85;6.47;;;5.40;99.90;;;;;;5032185;28;20135;-81
2022/01/04 01:23:17;;;;;;;10.23;5.43;;;5.40;99.90;;;;;;5032288;28;20022;-81
2022/01/04 01:25:43;;;;;;;11.18;6.22;;;5.30;99.90;;;;;;5032024;28;20040;-81
2022/01/04 01:28:08;;;;;;;11.43;6.85;;;5.30;99.90;;;;;;5032191;28;20026;-81
2022/01/04 01:30:37;;;;;;;11.98;6.22;;;5.30;99.90;;;;;;5031954;28;20048;-81
2022/01/04 01:33:03;;;;;;;10.50;6.15;;;5.30;99.90;;;;;;5032090;28;20022;-81
2022/01/04 01:35:30;;;;;;;12.30;5.78;;;5.30;99.90;;;;;;5031909;28;20387;-81
2022/01/04 01:37:57;;;;;;;9.00;5.30;;;5.20;99.90;;;;;;5033236;28;20049;-80
2022/01/04 01:40:23;;;;;;;8.15;5.28;;;5.20;99.90;;;;;;5031797;28;20053;-81
2022/01/04 01:42:48;;;;;;;10.43;5.07;;;5.20;99.90;;;;;;5031855;28;20057;-81
2022/01/04 01:45:16;;;;;;;15.13;7.72;;;5.20;99.90;;;;;;5031755;28;20018;-80
2022/01/04 01:47:43;;;;;;;11.25;6.38;;;5.20;99.90;;;;;;5031671;28;20372;-80
2022/01/04 01:50:11;;;;;;;9.32;6.57;;;5.20;99.90;;;;;;5031564;28;20064;-81
2022/01/04 01:52:37;;;;;;;9.82;5.00;;;5.20;99.90;;;;;;5031665;28;20044;-80
2022/01/04 01:55:03;;;;;;;9.80;5.45;;;5.20;99.90;;;;;;5031619;28;20082;-80
2022/01/04 01:57:29;;;;;;;26.90;13.38;;;5.20;99.90;;;;;;5031527;28;20504;-80
2022/01/04 01:59:55;;;;;;;21.40;7.65;;;5.20;99.90;;;;;;5031461;28;20121;-80
2022/01/04 02:02:20;;;;;;;11.60;6.35;;;5.20;99.90;;;;;;5031487;28;20082;-80
2022/01/04 02:04:46;;;;;;;11.40;5.55;;;5.20;99.90;;;;;;5034299;28;20020;-81
2022/01/04 02:07:12;;;;;;;29.45;13.48;;;5.20;99.90;;;;;;5052604;28;20047;-81
2022/01/04 02:09:41;;;;;;;29.40;13.55;;;5.20;99.90;;;;;;5051065;28;20036;-81
2022/01/04 02:12:09;;;;;;;17.20;8.50;;;5.10;99.90;;;;;;5051213;28;20017;-80
2022/01/04 02:14:34;;;;;;;14.50;7.35;;;5.10;99.90;;;;;;5050968;28;20494;-81
2022/01/04 02:17:00;;;;;;;9.88;6.15;;;5.10;99.90;;;;;;5051170;28;20028;-81
2022/01/04 02:19:25;;;;;;;13.40;8.43;;;5.10;99.90;;;;;;5051052;28;20021;-81
2022/01/04 02:21:51;;;;;;;15.55;8.98;;;5.10;99.90;;;;;;5051048;28;20028;-81
2022/01/04 02:24:17;;;;;;;13.18;8.63;;;5.10;99.90;;;;;;5050943;28;20025;-81
2022/01/04 02:26:42;;;;;;;19.13;10.48;;;5.10;99.90;;;;;;5049960;28;20482;-80
2022/01/04 02:29:08;;;;;;;10.95;6.68;;;5.10;99.90;;;;;;5052146;28;20025;-81
2022/01/04 02:31:37;;;;;;;10.38;7.10;;;5.10;99.90;;;;;;5052117;28;20477;-81
2022/01/04 02:34:03;;;;;;;10.02;7.20;;;5.00;99.90;;;;;;5050732;28;20020;-80
2022/01/04 02:36:28;;;;;;;15.45;7.65;;;5.00;99.90;;;;;;5052052;28;20399;-80
2022/01/04 02:38:54;;;;;;;14.15;7.88;;;5.00;99.90;;;;;;5050727;28;20099;-80
2022/01/04 02:41:20;;;;;;;10.48;6.78;;;5.00;99.90;;;;;;5050879;28;20029;-81
2022/01/04 02:43:46;;;;;;;11.93;6.82;;;5.00;99.90;;;;;;5050629;28;20084;-81
2022/01/04 02:46:11;;;;;;;10.60;5.78;;;4.90;99.90;;;;;;5051795;28;20064;-80
2022/01/04 02:48:42;;;;;;;10.63;6.78;;;5.00;99.90;;;;;;5047899;28;20029;-81
2022/01/04 02:51:08;;;;;;;12.27;6.93;;;4.90;99.90;;;;;;5031357;28;20033;-81
2022/01/04 02:53:34;;;;;;;9.98;5.72;;;4.90;99.90;;;;;;5048758;28;20492;-80
2022/01/04 02:56:00;;;;;;;7.70;5.60;;;4.90;99.90;;;;;;5050364;28;20021;-80
2022/01/04 02:58:25;;;;;;;9.05;5.05;;;4.90;99.90;;;;;;5051632;28;20502;-80
2022/01/04 03:00:51;;;;;;;7.63;4.90;;;4.90;99.90;;;;;;5050257;28;20114;-79
2022/01/04 03:03:16;;;;;;;7.28;5.63;;;4.90;99.90;;;;;;5032806;28;20017;-80
2022/01/04 03:05:42;;;;;;;6.10;4.15;;;4.80;99.90;;;;;;5030215;28;20021;-80
2022/01/04 03:08:07;;;;;;;9.68;5.97;;;4.80;99.90;;;;;;5031656;28;20053;-80
2022/01/04 03:10:34;;;;;;;6.05;4.53;;;4.80;99.90;;;;;;5030184;28;20479;-80
2022/01/04 03:13:02;;;;;;;7.78;4.85;;;4.70;99.90;;;;;;5030313;28;20021;-80
2022/01/04 03:15:28;;;;;;;8.98;4.05;;;4.70;99.90;;;;;;5030091;28;20112;-80
2022/01/04 03:17:54;;;;;;;7.78;3.85;;;4.70;99.90;;;;;;5031567;28;20498;-80
2022/01/04 03:20:19;;;;;;;7.00;4.22;;;4.70;99.90;;;;;;5048369;28;20376;-80
2022/01/04 03:22:45;;;;;;;8.65;4.32;;;4.60;99.90;;;;;;5050030;28;20039;-80
2022/01/04 03:25:11;;;;;;;7.07;4.30;;;4.60;99.90;;;;;;5049946;28;20028;-79
2022/01/04 03:27:37;;;;;;;6.38;3.97;;;4.60;99.90;;;;;;5049809;28;20029;-80
2022/01/04 03:30:03;;;;;;;6.15;3.90;;;4.50;99.90;;;;;;5051202;28;20667;-79
2022/01/04 03:32:29;;;;;;;7.05;5.38;;;4.50;99.90;;;;;;5049794;28;20023;-80
2022/01/04 03:34:55;;;;;;;4.88;3.60;;;4.50;99.90;;;;;;5049897;28;20116;-80
2022/01/04 03:37:20;;;;;;;5.32;3.47;;;4.40;99.90;;;;;;5049534;28;20053;-80
2022/01/04 03:39:46;;;;;;;9.32;3.90;;;4.40;99.90;;;;;;5049836;28;20557;-80
2022/01/04 03:42:11;;;;;;;6.57;4.15;;;4.40;99.90;;;;;;5049848;28;20025;-80
2022/01/04 03:44:37;;;;;;;8.52;4.43;;;4.30;99.90;;;;;;5051030;28;20390;-80
2022/01/04 03:47:03;;;;;;;7.40;4.60;;;4.30;99.90;;;;;;5049721;28;20033;-80
2022/01/04 03:49:28;;;;;;;7.00;4.47;;;4.30;99.90;;;;;;5050994;28;20104;-80
2022/01/04 03:51:54;;;;;;;6.43;3.90;;;4.30;99.90;;;;;;5049817;28;20021;-80
2022/01/04 03:54:20;;;;;;;6.88;4.35;;;4.30;99.90;;;;;;5049637;28;20021;-80
2022/01/04 03:56:45;;;;;;;8.38;4.47;;;4.30;99.90;;;;;;5050927;28;20402;-81
2022/01/04 03:59:11;;;;;;;16.23;7.18;;;4.30;99.90;;;;;;5049608;28;20029;-81
2022/01/04 04:01:37;;;;;;;12.43;6.90;;;4.30;99.90;;;;;;5049621;28;20017;-81
2022/01/04 04:04:02;;;;;;;11.95;6.13;;;4.30;99.90;;;;;;5049626;28;20021;-81
2022/01/04 04:06:28;;;;;;;8.57;5.88;;;4.30;99.90;;;;;;5051360;28;20037;-81
2022/01/04 04:08:56;;;;;;;14.02;8.32;;;4.30;99.90;;;;;;5050810;28;20486;-81
2022/01/04 04:11:23;;;;;;;12.50;6.35;;;4.40;99.90;;;;;;5050759;28;20026;-81
2022/01/04 04:13:49;;;;;;;11.77;9.07;;;4.40;99.90;;;;;;5049483;28;20116;-81
2022/01/04 04:16:14;;;;;;;20.52;9.73;;;4.40;99.90;;;;;;5049492;28;20450;-81
2022/01/04 04:18:40;;;;;;;16.20;8.90;;;4.40;99.90;;;;;;5049550;28;20398;-81
2022/01/04 04:21:05;;;;;;;14.02;8.70;;;4.40;99.90;;;;;;5049431;28;20056;-81
2022/01/04 04:23:31;;;;;;;15.63;8.32;;;4.40;99.90;;;;;;5049442;28;20017;-81
2022/01/04 04:25:56;;;;;;;17.55;9.70;;;4.40;99.90;;;;;;5049413;28;20033;-81
2022/01/04 04:28:22;;;;;;;20.67;8.73;;;4.50;99.90;;;;;;5050635;28;20425;-80
2022/01/04 04:30:47;;;;;;;15.25;9.80;;;4.50;99.90;;;;;;5049324;28;20501;-81
2022/01/04 04:33:13;;;;;;;20.00;10.55;;;4.50;99.90;;;;;;5050669;28;20051;-80
2022/01/04 04:35:38;;;;;;;16.58;10.38;;;4.50;99.90;;;;;;5050527;28;20021;-80
2022/01/04 04:38:06;;;;;;;16.58;10.10;;;4.50;99.90;;;;;;5049448;28;20017;-80
2022/01/04 04:40:33;;;;;;;14.63;9.32;;;4.50;99.90;;;;;;5050413;28;20021;-80
2022/01/04 04:42:58;;;;;;;20.55;10.88;;;4.50;99.90;;;;;;5049601;28;20025;-80
2022/01/04 04:45:24;;;;;;;14.63;9.63;;;4.50;99.90;;;;;;5050567;28;20232;-81
2022/01/04 04:47:50;;;;;;;21.67;10.38;;;4.50;99.90;;;;;;5049172;28;20029;-81
2022/01/04 04:50:15;;;;;;;15.73;9.82;;;4.60;99.90;;;;;;5050734;28;20041;-80
2022/01/04 04:52:41;;;;;;;18.42;10.38;;;4.60;99.90;;;;;;5052981;28;20021;-81
2022/01/04 04:55:08;;;;;;;21.73;10.82;;;4.60;99.90;;;;;;5053004;28;20079;-80
2022/01/04 04:57:33;;;;;;;19.05;10.73;;;4.60;99.90;;;;;;5053860;28;20056;-81
2022/01/04 04:59:59;;;;;;;19.08;11.35;;;4.60;99.90;;;;;;5052615;28;20479;-81
2022/01/04 05:02:25;;;;;;;18.73;12.32;;;4.60;99.90;;;;;;5052588;28;20021;-81
2022/01/04 05:04:51;;;;;;;19.95;11.95;;;4.60;99.90;;;;;;5052758;28;20025;-81
2022/01/04 05:07:16;;;;;;;20.20;11.65;;;4.60;99.90;;;;;;5052342;28;20410;-80
2022/01/04 05:09:42;;;;;;;19.58;12.02;;;4.60;99.90;;;;;;5053568;28;20033;-80
2022/01/04 05:12:08;;;;;;;23.20;12.48;;;4.60;99.90;;;;;;5052441;28;20075;-81
2022/01/04 05:14:37;;;;;;;23.13;13.00;;;4.60;99.90;;;;;;5052182;28;20033;-81
2022/01/04 05:17:03;;;;;;;23.83;14.18;;;4.60;99.90;;;;;;5052312;28;20024;-81
2022/01/04 05:19:28;;;;;;;23.60;12.85;;;4.60;99.90;;;;;;5053407;28;20407;-81
2022/01/04 05:21:54;;;;;;;23.85;14.27;;;4.60;99.90;;;;;;5052240;28;20025;-81
2022/01/04 05:24:20;;;;;;;28.13;14.50;;;4.70;99.90;;;;;;5053598;28;20021;-81
2022/01/04 05:26:45;;;;;;;29.63;15.75;;;4.70;99.90;;;;;;5051994;28;20029;-81
2022/01/04 05:29:11;;;;;;;26.25;14.77;;;4.70;99.90;;;;;;5051931;28;20033;-81
2022/01/04 05:31:36;;;;;;;29.02;14.20;;;4.70;99.90;;;;;;5051922;28;20070;-81
2022/01/04 05:34:02;;;;;;;25.80;14.10;;;4.70;99.90;;;;;;5051916;28;20013;-81
2022/01/04 05:36:27;;;;;;;28.80;13.98;;;4.70;99.90;;;;;;5051921;28;20470;-81
2022/01/04 05:38:53;;;;;;;19.83;12.73;;;4.70;99.90;;;;;;5053161;28;20028;-81
2022/01/04 05:41:18;;;;;;;22.35;14.10;;;4.70;99.90;;;;;;5053099;28;20025;-81
2022/01/04 05:43:46;;;;;;;23.27;13.57;;;4.70;99.90;;;;;;5053142;28;20459;-81
2022/01/04 05:46:11;;;;;;;27.90;15.20;;;4.70;99.90;;;;;;5052977;28;20044;-81
2022/01/04 05:48:37;;;;;;;24.55;13.88;;;4.80;99.90;;;;;;5053247;28;20013;-81
2022/01/04 05:51:03;;;;;;;26.05;13.77;;;4.70;99.90;;;;;;5052896;28;20025;-81
2022/01/04 05:53:29;;;;;;;22.55;13.55;;;4.80;99.90;;;;;;5051688;28;20052;-81
2022/01/04 05:55:55;;;;;;;26.20;14.13;;;4.70;99.90;;;;;;5052874;28;20116;-81
2022/01/04 05:58:21;;;;;;;22.38;13.73;;;4.70;99.90;;;;;;5051690;28;20585;-81
2022/01/04 06:00:46;;;;;;;28.95;13.75;;;4.80;99.90;;;;;;5052587;28;20083;-81
2022/01/04 06:03:12;;;;;;;32.60;16.15;;;4.80;99.90;;;;;;5052856;28;20021;-81
2022/01/04 06:05:37;;;;;;;29.33;15.60;;;4.70;99.90;;;;;;5051207;28;20021;-81
2022/01/04 06:08:03;;;;;;;20.80;12.32;;;4.80;99.90;;;;;;5051382;28;20021;-80
2022/01/04 06:10:36;;;;;;;47.38;22.15;;;4.80;99.90;;;;;;5051102;28;20029;-80
2022/01/04 06:15:27;;;;;;;25.27;12.98;;;4.80;99.90;;;;;;5052394;28;20098;-81
2022/01/04 06:17:53;;;;;;;36.92;15.32;;;4.80;99.90;;;;;;5051795;28;20079;-81
2022/01/04 06:20:21;;;;;;;32.75;16.55;;;4.80;99.90;;;;;;5050971;28;20021;-80
2022/01/04 06:22:51;;;;;;;23.98;13.23;;;4.80;99.90;;;;;;5050548;28;20020;-81
2022/01/04 06:25:19;;;;;;;23.10;12.23;;;4.70;99.90;;;;;;5050101;28;20059;-81
2022/01/04 06:27:47;;;;;;;40.72;17.05;;;4.80;99.90;;;;;;5049675;28;20286;-80
2022/01/04 06:30:17;;;;;;;24.00;12.75;;;4.80;99.90;;;;;;5050624;28;20301;-81
2022/01/04 06:32:45;;;;;;;22.15;13.32;;;4.80;99.90;;;;;;5050187;28;20078;-81
2022/01/04 06:35:13;;;;;;;21.48;11.82;;;4.80;99.90;;;;;;5034718;28;20367;-81
2022/01/04 06:37:42;;;;;;;55.03;23.17;;;4.80;99.90;;;;;;5029029;28;20026;-81
2022/01/04 06:40:11;;;;;;;25.67;15.75;;;4.80;99.90;;;;;;5032152;28;20359;-81
2022/01/04 06:42:37;;;;;;;28.00;14.38;;;4.70;99.90;;;;;;5049201;28;20434;-80
2022/01/04 06:45:04;;;;;;;32.75;16.52;;;4.70;99.90;;;;;;5066197;23;20050;-81
2022/01/04 06:47:29;;;;;;;26.90;15.05;;;4.70;99.90;;;;;;5031488;28;20029;-81
2022/01/04 06:49:55;;;;;;;32.95;14.70;;;4.80;99.90;;;;;;5031664;28;20056;-81
2022/01/04 06:52:20;;;;;;;24.90;14.07;;;4.80;99.90;;;;;;5031518;28;20025;-81
2022/01/04 06:54:46;;;;;;;21.95;12.93;;;4.80;99.90;;;;;;5013586;28;20017;-81
2022/01/04 06:57:12;;;;;;;22.95;13.82;;;4.80;99.90;;;;;;5014033;28;20037;-81
2022/01/04 06:59:37;;;;;;;21.35;13.25;;;4.70;99.90;;;;;;5013030;28;20383;-81
2022/01/04 07:02:03;;;;;;;25.08;13.63;;;4.80;99.90;;;;;;5031512;28;20438;-80
2022/01/04 07:04:29;;;;;;;55.38;25.55;;;4.70;99.90;;;;;;5031176;28;20029;-80
2022/01/04 07:06:54;;;;;;;27.08;15.05;;;4.80;99.90;;;;;;5031132;28;20069;-81
2022/01/04 07:09:20;;;;;;;23.90;14.50;;;4.80;99.90;;;;;;5031562;28;20549;-81
2022/01/04 07:11:46;;;;;;;26.17;15.15;;;4.80;99.90;;;;;;5013650;28;20025;-79
2022/01/04 07:14:11;;;;;;;26.05;15.13;;;4.80;99.90;;;;;;5030576;28;20026;-80
2022/01/04 07:16:37;;;;;;;25.52;16.42;;;4.80;99.90;;;;;;5031424;28;20029;-80
2022/01/04 07:19:02;;;;;;;25.42;14.80;;;4.80;99.90;;;;;;5029488;28;20033;-81
2022/01/04 07:21:28;;;;;;;30.70;15.02;;;4.80;99.90;;;;;;5031362;28;20462;-81
2022/01/04 07:23:55;;;;;;;24.83;14.05;;;4.80;99.90;;;;;;5013805;28;20467;-81
2022/01/04 07:26:21;;;;;;;24.73;15.77;;;4.80;99.90;;;;;;5013399;28;20037;-81
2022/01/04 07:28:48;;;;;;;27.10;14.77;;;4.90;99.90;;;;;;5013063;28;20036;-80
2022/01/04 07:31:15;;;;;;;23.83;14.75;;;4.90;99.90;;;;;;5013519;28;20064;-81
2022/01/04 07:33:41;;;;;;;22.98;13.55;;;4.90;99.90;;;;;;5013505;28;20022;-81
2022/01/04 07:36:07;;;;;;;30.65;16.38;;;4.90;99.90;;;;;;5031209;28;20032;-80
2022/01/04 07:38:36;;;;;;;27.30;14.40;;;4.90;99.90;;;;;;5012273;28;20057;-81
2022/01/04 07:41:03;;;;;;;28.17;15.77;;;5.00;99.90;;;;;;5013495;28;20025;-81
2022/01/04 07:43:29;;;;;;;25.33;14.55;;;5.00;99.90;;;;;;5010291;28;20088;-80
2022/01/04 07:45:55;;;;;;;26.15;14.77;;;5.00;99.90;;;;;;5011057;28;20475;-80
2022/01/04 07:48:21;;;;;;;26.98;15.80;;;5.10;99.90;;;;;;5010662;28;20025;-80
2022/01/04 07:50:47;;;;;;;26.63;14.63;;;5.10;99.90;;;;;;5010717;28;20028;-80
2022/01/04 07:53:12;;;;;;;26.50;15.43;;;5.10;99.90;;;;;;5028851;28;20053;-80
2022/01/04 07:55:38;;;;;;;21.30;13.43;;;5.20;99.90;;;;;;5012046;28;20026;-80
2022/01/04 07:58:04;;;;;;;29.02;15.15;;;5.20;99.90;;;;;;5012507;28;20095;-80
2022/01/04 08:00:29;;;;;;;25.17;14.27;;;5.20;99.90;;;;;;5012599;28;20037;-80
2022/01/04 08:02:55;;;;;;;24.35;14.52;;;5.20;99.90;;;;;;5012901;28;20028;-80
2022/01/04 08:05:22;;;;;;;24.00;14.32;;;5.20;99.90;;;;;;5015825;28;20188;-81
2022/01/04 08:07:47;;;;;;;24.83;14.65;;;5.20;99.90;;;;;;5030893;28;20111;-81
2022/01/04 08:10:13;;;;;;;28.08;15.80;;;5.30;99.90;;;;;;5029584;28;20475;-81
2022/01/04 08:12:40;;;;;;;26.38;15.48;;;5.30;99.90;;;;;;5029656;28;20025;-80
2022/01/04 08:15:08;;;;;;;27.88;18.02;;;5.30;99.90;;;;;;5029626;28;20063;-81
2022/01/04 08:17:33;;;;;;;31.70;17.27;;;5.30;99.90;;;;;;5030798;28;20057;-81
2022/01/04 08:20:00;;;;;;;33.85;18.42;;;5.40;99.90;;;;;;5030900;28;20444;-81
2022/01/04 08:22:31;;;;;;;35.53;19.15;;;5.40;99.90;;;;;;5029507;28;20022;-81
2022/01/04 08:24:57;;;;;;;34.58;19.83;;;5.40;99.90;;;;;;5030653;28;20018;-81
2022/01/04 08:27:23;;;;;;;27.63;18.58;;;5.50;99.90;;;;;;5034538;28;20029;-80
2022/01/04 08:29:48;;;;;;;35.75;21.33;;;5.50;99.90;;;;;;5034511;28;20490;-81
2022/01/04 08:32:15;;;;;;;32.88;19.95;;;5.60;99.90;;;;;;5033266;28;20075;-81
2022/01/04 08:34:41;;;;;;;35.80;20.73;;;5.60;99.90;;;;;;5032933;28;20033;-81
2022/01/04 08:37:06;;;;;;;43.20;26.27;;;5.60;99.90;;;;;;5034482;28;20025;-83
2022/01/04 08:39:32;;;;;;;46.97;25.92;;;5.60;99.90;;;;;;5030810;28;20048;-82
2022/01/04 08:42:01;;;;;;;33.58;21.85;;;5.70;99.90;;;;;;5031861;28;20033;-82
2022/01/04 08:44:27;;;;;;;41.92;21.25;;;5.70;99.90;;;;;;5013945;28;20071;-82
2022/01/04 08:46:53;;;;;;;38.67;22.10;;;5.70;99.90;;;;;;5033198;28;20484;-82
2022/01/04 08:49:19;;;;;;;43.42;23.02;;;5.80;99.90;;;;;;5032499;28;20021;-82
2022/01/04 08:51:45;;;;;;;44.28;20.35;;;5.80;99.90;;;;;;5034124;28;20097;-82
2022/01/04 08:54:11;;;;;;;46.55;20.90;;;5.90;99.90;;;;;;5034121;28;20026;-82
2022/01/04 08:56:37;;;;;;;44.08;19.70;;;5.80;99.90;;;;;;5016172;28;20028;-82
2022/01/04 08:59:05;;;;;;;34.85;16.30;;;5.90;99.90;;;;;;5015803;28;20018;-81
2022/01/04 09:01:31;;;;;;;34.78;14.77;;;5.90;99.90;;;;;;5015571;28;20104;-81
2022/01/04 09:03:58;;;;;;;35.28;16.20;;;5.90;99.90;;;;;;5015498;28;20036;-81
2022/01/04 09:06:24;;;;;;;32.53;13.23;;;5.90;99.90;;;;;;5015891;28;20060;-81
2022/01/04 09:08:50;;;;;;;30.42;15.90;;;5.90;99.90;;;;;;5015357;28;20471;-82
2022/01/04 09:11:21;;;;;;;26.92;12.35;;;6.00;99.90;;;;;;5014236;28;20100;-82
2022/01/04 09:13:47;;;;;;;22.60;12.85;;;6.00;99.90;;;;;;5012372;28;20026;-83
2022/01/04 09:18:48;;;;;;;15.60;10.98;;;6.00;99.90;;;;;;5012995;28;20045;-81
2022/01/04 09:21:19;;;;;;;20.25;13.18;;;6.00;99.90;;;;;;5012695;28;20042;-82
2022/01/04 09:23:46;;;;;;;16.73;9.95;;;6.00;99.90;;;;;;4995429;28;20026;-81
2022/01/04 09:26:14;;;;;;;15.52;8.70;;;6.10;99.90;;;;;;5028943;28;20109;-81
2022/01/04 09:28:40;;;;;;;16.98;12.52;;;6.10;99.90;;;;;;5032744;28;20028;-81
2022/01/04 09:31:05;;;;;;;14.25;8.77;;;6.10;99.90;;;;;;5032498;28;20100;-81
2022/01/04 09:33:32;;;;;;;15.15;10.82;;;6.10;99.90;;;;;;5033852;28;20025;-81
2022/01/04 09:35:58;;;;;;;14.20;10.38;;;6.10;99.90;;;;;;5033992;28;20128;-82
2022/01/04 09:38:24;;;;;;;15.00;10.98;;;6.10;99.90;;;;;;5052507;28;20021;-81
2022/01/04 09:40:50;;;;;;;11.45;8.00;;;6.20;99.90;;;;;;5052608;28;20092;-81
2022/01/04 09:43:17;;;;;;;13.70;7.97;;;6.10;99.90;;;;;;5052927;28;20029;-81
2022/01/04 09:45:43;;;;;;;12.27;8.68;;;6.10;99.90;;;;;;5053272;28;20033;-81
2022/01/04 09:48:09;;;;;;;12.73;9.15;;;6.10;99.90;;;;;;5052858;28;20044;-81
2022/01/04 09:50:38;;;;;;;11.80;7.90;;;6.20;99.90;;;;;;5033356;28;20029;-82
2022/01/04 09:53:06;;;;;;;13.68;8.90;;;6.20;99.90;;;;;;5033600;28;20021;-81
2022/01/04 09:55:34;;;;;;;13.80;9.82;;;6.20;99.90;;;;;;5051264;28;20056;-81
2022/01/04 09:58:00;;;;;;;10.82;7.80;;;6.20;99.90;;;;;;5029861;28;20021;-81
2022/01/04 10:00:25;;;;;;;8.30;7.18;;;6.20;99.90;;;;;;5030781;28;20025;-81
2022/01/04 10:02:52;;;;;;;9.55;7.38;;;6.10;99.90;;;;;;5031420;28;20028;-81
2022/01/04 10:05:21;;;;;;;9.48;6.00;;;6.20;99.90;;;;;;5031039;28;20468;-82
2022/01/04 10:07:47;;;;;;;9.65;6.85;;;6.20;99.90;;;;;;5032604;28;20037;-82
2022/01/04 10:10:16;;;;;;;11.77;7.50;;;6.20;99.90;;;;;;5027639;28;20105;-81
2022/01/04 10:12:51;;;;;;;12.43;7.20;;;6.30;99.90;;;;;;5004493;28;20031;-81
2022/01/04 10:15:42;;;;;;;9.45;5.93;;;6.30;99.90;;;;;;5030089;28;20397;-81
2022/01/04 10:18:13;;;;;;;10.25;7.38;;;6.30;99.90;;;;;;5023221;28;20492;-81
2022/01/04 10:20:45;;;;;;;12.15;7.00;;;6.40;99.90;;;;;;5022984;28;20491;-81
2022/01/04 10:23:12;;;;;;;15.43;8.65;;;6.40;99.90;;;;;;5023419;28;20026;-81
2022/01/04 10:25:38;;;;;;;14.55;9.90;;;6.40;99.90;;;;;;5021007;28;20022;-81
2022/01/04 10:28:04;;;;;;;11.60;8.15;;;6.40;99.90;;;;;;5030341;28;20033;-81
2022/01/04 10:30:39;;;;;;;8.80;6.35;;;6.40;99.90;;;;;;5019942;28;20021;-81
2022/01/04 10:33:19;;;;;;;12.85;10.38;;;6.40;99.90;;;;;;5020319;28;20033;-81
2022/01/04 10:35:49;;;;;;;17.23;10.93;;;6.50;99.90;;;;;;5029835;28;20048;-81
2022/01/04 10:38:21;;;;;;;22.55;10.32;;;6.40;99.90;;;;;;5030489;28;20049;-81
2022/01/04 10:40:50;;;;;;;15.90;10.27;;;6.40;99.90;;;;;;5017929;28;20021;-81
2022/01/04 10:43:19;;;;;;;33.83;18.95;;;6.40;99.90;;;;;;5030483;28;20022;-81
2022/01/04 10:45:46;;;;;;;42.65;23.67;;;6.50;99.90;;;;;;5022034;28;20037;-81
2022/01/04 10:48:20;;;;;;;30.25;16.42;;;6.50;99.90;;;;;;5006431;28;20586;-81
2022/01/04 10:50:51;;;;;;;53.72;27.17;;;6.50;99.90;;;;;;5019864;28;20071;-81
2022/01/04 10:53:29;;;;;;;48.40;24.48;;;6.50;99.90;;;;;;5034471;28;20152;-81
2022/01/04 10:56:15;;;;;;;39.33;21.95;;;6.50;99.90;;;;;;5017874;28;20037;-82
2022/01/04 10:58:51;;;;;;;29.50;18.05;;;6.60;99.90;;;;;;5019485;28;20033;-82
2022/01/04 11:01:28;;;;;;;14.98;8.55;;;6.60;99.90;;;;;;5025405;28;20018;-82
2022/01/04 11:03:57;;;;;;;9.95;7.90;;;6.60;99.90;;;;;;5029790;28;20017;-81
2022/01/04 11:06:30;;;;;;;11.60;8.55;;;6.60;99.90;;;;;;5008679;28;20041;-81
2022/01/04 11:08:56;;;;;;;;;;;6.60;99.90;;;;;;5017205;28;20074;-82
2022/01/04 11:11:22;;;;;;;10.50;6.47;;;6.60;99.90;;;;;;5029118;28;20274;-82
2022/01/04 11:13:51;;;;;;;11.90;7.38;;;6.60;99.90;;;;;;5013219;28;20026;-82
2022/01/04 11:16:18;;;;;;;14.30;7.32;;;6.70;99.90;;;;;;5012158;28;20025;-81
2022/01/04 11:18:47;;;;;;;14.27;7.35;;;6.70;99.90;;;;;;5014491;28;20017;-81
2022/01/04 11:21:14;;;;;;;13.75;9.02;;;6.70;99.90;;;;;;5030303;28;20043;-81
2022/01/04 11:23:41;;;;;;;13.20;8.70;;;6.70;99.90;;;;;;5018638;28;20025;-81
2022/01/04 11:26:08;;;;;;;14.50;8.07;;;6.70;99.90;;;;;;5027366;28;20064;-81
2022/01/04 11:28:34;;;;;;;15.65;8.52;;;6.60;99.90;;;;;;5027063;28;20041;-82
2022/01/04 11:31:25;;;;;;;19.52;9.02;;;6.60;99.90;;;;;;5016996;28;20064;-81
2022/01/04 11:33:57;;;;;;;21.30;10.02;;;6.60;99.90;;;;;;5028633;28;20022;-81
2022/01/04 11:36:25;;;;;;;24.20;10.55;;;6.70;99.90;;;;;;5020007;28;20479;-81
2022/01/04 11:38:51;;;;;;;17.73;9.88;;;6.60;99.90;;;;;;5029983;28;20485;-81
2022/01/04 11:41:40;;;;;;;17.13;9.68;;;6.70;99.90;;;;;;5030146;28;20100;-81
2022/01/04 11:44:19;;;;;;;18.98;9.55;;;6.60;99.90;;;;;;5027680;28;20064;-81
2022/01/04 11:47:04;;;;;;;23.10;10.40;;;6.70;99.90;;;;;;5014229;28;20050;-81
2022/01/04 11:49:30;;;;;;;19.98;10.80;;;6.70;99.90;;;;;;5013486;28;20494;-81
2022/01/04 11:51:56;;;;;;;17.77;9.73;;;6.70;99.90;;;;;;5029685;28;20285;-81
2022/01/04 11:54:24;;;;;;;19.23;9.95;;;6.70;99.90;;;;;;5023007;28;20057;-81
2022/01/04 11:57:00;;;;;;;16.20;10.45;;;6.80;99.90;;;;;;5016285;28;20021;-81
2022/01/04 11:59:39;;;;;;;14.38;9.80;;;6.80;99.90;;;;;;5020966;28;20041;-81
2022/01/04 12:02:24;;;;;;;16.52;9.25;;;6.80;99.90;;;;;;5031368;28;20032;-81
2022/01/04 12:04:55;;;;;;;19.25;9.75;;;6.80;99.90;;;;;;5023412;28;20016;-82
2022/01/04 12:07:41;;;;;;;15.45;9.27;;;6.80;99.90;;;;;;5031585;28;20052;-81
2022/01/04 12:10:22;;;;;;;17.10;9.70;;;6.80;99.90;;;;;;5031849;28;20029;-81
2022/01/04 12:12:53;;;;;;;19.17;9.77;;;6.80;99.90;;;;;;5020866;28;20518;-81
2022/01/04 12:15:34;;;;;;;17.17;9.75;;;6.90;99.90;;;;;;5020631;28;20030;-81
2022/01/04 12:18:29;;;;;;;16.63;7.97;;;6.90;99.90;;;;;;5030691;28;20029;-81
2022/01/04 12:20:56;;;;;;;19.33;8.57;;;6.90;99.90;;;;;;5031364;28;20037;-82
2022/01/04 12:23:46;;;;;;;17.48;9.48;;;6.80;99.90;;;;;;5031602;28;20036;-81
2022/01/04 12:26:12;;;;;;;17.88;8.13;;;6.90;99.90;;;;;;5020085;28;20128;-81
2022/01/04 12:28:42;;;;;;;17.58;9.13;;;6.90;99.90;;;;;;5021331;28;20017;-81
2022/01/04 12:31:17;;;;;;;11.93;7.95;;;6.90;99.90;;;;;;5020554;28;20116;-81
2022/01/04 12:33:57;;;;;;;14.93;8.65;;;6.90;99.90;;;;;;5019377;28;20046;-81
2022/01/04 12:36:34;;;;;;;14.43;8.18;;;6.90;99.90;;;;;;5010223;28;20017;-81
2022/01/04 12:39:09;;;;;;;13.23;7.72;;;6.90;99.90;;;;;;5021008;28;20029;-82
2022/01/04 12:41:36;;;;;;;15.23;7.93;;;6.90;99.90;;;;;;5029829;28;20489;-82
2022/01/04 12:44:04;;;;;;;16.23;8.13;;;6.80;99.90;;;;;;5030013;28;20025;-82
2022/01/04 12:46:33;;;;;;;10.73;7.35;;;6.90;99.90;;;;;;5029773;28;20595;-82
2022/01/04 12:49:03;;;;;;;14.98;7.93;;;6.90;99.90;;;;;;5020813;28;20044;-82
2022/01/04 12:51:37;;;;;;;14.20;8.23;;;6.90;99.90;;;;;;5019693;28;20025;-82